Time;durP1;ratioP1;P1;durP2;ratioP2;P2;SDS_P1;SDS_P2;PMS_P1;PMS_P2;Temp;Humidity;BMP_temperature;BMP_pressure;BME280_temperature;BME280_humidity;BME280_pressure;Samples;Min_cycle;Max_cycle;Signal;HPM_P1;HPM_P2
2022/04/11 00:02:13;;;;;;;24.75;8.02;;;;;;;3.48;75.17;96668.19;5046287;28;20114;-75
2022/04/11 00:04:40;;;;;;;28.42;8.35;;;;;;;3.47;75.22;96655.00;5047774;28;20554;-75
2022/04/11 00:07:07;;;;;;;20.92;8.00;;;;;;;3.46;75.05;96664.16;5046636;28;20064;-74
2022/04/11 00:09:34;;;;;;;27.60;8.60;;;;;;;3.43;75.28;96654.72;5047447;28;20049;-76
2022/04/11 00:12:01;;;;;;;22.15;7.93;;;;;;;3.43;74.97;96660.09;5047095;28;20055;-75
2022/04/11 00:14:27;;;;;;;31.13;8.75;;;;;;;3.36;75.04;96659.56;5043982;28;20036;-74
2022/04/11 00:16:54;;;;;;;18.50;7.63;;;;;;;3.30;75.19;96656.03;5047170;28;20053;-76
2022/04/11 00:19:21;;;;;;;28.35;8.88;;;;;;;3.29;75.49;96657.13;5046241;28;20056;-75
2022/04/11 00:21:47;;;;;;;24.08;7.43;;;;;;;3.26;75.38;96654.13;5047480;28;20056;-74
2022/04/11 00:24:15;;;;;;;27.17;8.88;;;;;;;3.22;75.54;96653.84;5046114;28;20053;-75
2022/04/11 00:26:42;;;;;;;33.15;8.52;;;;;;;3.21;75.47;96646.84;5047306;28;20052;-75
2022/04/11 00:29:08;;;;;;;23.50;8.45;;;;;;;3.16;75.41;96649.53;5045838;28;20049;-75
2022/04/11 00:31:34;;;;;;;27.33;8.93;;;;;;;3.13;75.49;96650.03;5046619;28;20045;-75
2022/04/11 00:34:01;;;;;;;25.35;7.45;;;;;;;3.13;75.41;96644.66;5046574;28;20056;-76
2022/04/11 00:36:27;;;;;;;23.08;7.85;;;;;;;3.13;75.43;96650.88;5046363;28;20052;-75
2022/04/11 00:38:54;;;;;;;27.88;7.80;;;;;;;3.13;75.33;96644.66;5046832;28;20049;-75
2022/04/11 00:41:22;;;;;;;33.50;8.20;;;;;;;3.10;75.43;96640.63;5045666;28;20052;-75
2022/04/11 00:43:48;;;;;;;25.95;7.53;;;;;;;3.10;75.33;96637.94;5043740;28;20060;-76
2022/04/11 00:46:15;;;;;;;38.22;8.68;;;;;;;3.10;75.37;96634.44;5045443;28;20049;-75
2022/04/11 00:48:42;;;;;;;23.90;7.72;;;;;;;3.05;75.16;96642.50;5047192;28;20099;-76
2022/04/11 00:51:11;;;;;;;22.50;8.20;;;;;;;3.02;75.17;96648.38;5045590;28;20045;-76
2022/04/11 00:53:40;;;;;;;28.38;7.90;;;;;;;2.91;75.33;96647.53;5046801;28;20439;-75
2022/04/11 00:56:08;;;;;;;27.70;7.82;;;;;;;2.93;75.42;96656.16;5045350;28;20049;-75
2022/04/11 00:58:37;;;;;;;29.65;7.90;;;;;;;2.92;75.45;96642.94;5046305;28;20056;-75
2022/04/11 01:01:04;;;;;;;21.30;7.85;;;;;;;2.88;75.29;96643.50;5045862;28;20045;-75
2022/04/11 01:03:31;;;;;;;29.65;7.97;;;;;;;2.87;75.51;96652.63;5046127;28;20037;-75
2022/04/11 01:05:58;;;;;;;24.88;7.32;;;;;;;2.88;75.45;96648.88;5046214;28;20053;-76
2022/04/11 01:08:25;;;;;;;129.82;29.70;;;;;;;2.86;75.31;96656.38;5045433;28;20055;-75
2022/04/11 01:10:52;;;;;;;44.38;7.78;;;;;;;2.84;75.47;96645.09;5046365;28;20057;-75
2022/04/11 01:13:19;;;;;;;32.60;8.23;;;;;;;2.83;75.48;96651.53;5040948;28;20060;-75
2022/04/11 01:15:55;;;;;;;23.05;7.10;;;;;;;2.81;75.75;96650.97;5047129;28;20518;-75
2022/04/11 01:18:21;;;;;;;27.15;8.05;;;;;;;2.80;75.88;96649.34;5045301;28;20059;-75
2022/04/11 01:20:48;;;;;;;19.60;6.93;;;;;;;2.81;75.90;96653.66;5046318;28;20122;-75
2022/04/11 01:23:16;;;;;;;27.08;7.90;;;;;;;2.81;75.60;96642.91;5045763;28;20139;-75
2022/04/11 01:25:43;;;;;;;25.25;9.43;;;;;;;2.77;75.54;96647.22;5045844;28;20052;-75
2022/04/11 01:28:10;;;;;;;29.30;8.55;;;;;;;2.72;75.68;96646.38;5045965;28;20041;-75
2022/04/11 01:30:37;;;;;;;30.08;8.18;;;;;;;2.69;75.59;96647.69;5045319;28;20048;-75
2022/04/11 01:33:15;;;;;;;30.65;7.50;;;;;;;2.68;75.40;96651.44;5045961;28;20041;-75
2022/04/11 01:35:42;;;;;;;23.63;8.00;;;;;;;2.67;75.49;96657.91;5045669;28;20507;-78
2022/04/11 01:38:09;;;;;;;40.83;7.85;;;;;;;2.65;75.48;96654.66;5045972;28;20063;-76
2022/04/11 01:40:36;;;;;;;24.63;7.07;;;;;;;2.63;75.65;96662.19;5045496;28;20045;-75
2022/04/11 01:43:03;;;;;;;24.10;8.90;;;;;;;2.61;75.75;96658.94;5044385;28;20052;-75
2022/04/11 01:45:29;;;;;;;21.13;7.40;;;;;;;2.59;75.81;96661.06;5045837;28;20049;-76
2022/04/11 01:47:56;;;;;;;20.45;7.80;;;;;;;2.57;75.95;96660.53;5045842;28;20052;-76
2022/04/11 01:50:23;;;;;;;20.95;8.48;;;;;;;2.54;75.78;96661.03;5045583;28;20064;-76
2022/04/11 01:52:49;;;;;;;26.70;8.57;;;;;;;2.52;75.98;96655.13;5045335;28;20060;-75
2022/04/11 01:55:16;;;;;;;20.10;8.40;;;;;;;2.49;75.88;96652.94;5045899;28;20045;-75
2022/04/11 01:57:43;;;;;;;21.27;8.32;;;;;;;2.47;76.09;96652.41;5045060;28;20056;-76
2022/04/11 02:00:11;;;;;;;21.73;8.13;;;;;;;2.45;76.34;96652.63;5045815;28;20049;-75
2022/04/11 02:02:38;;;;;;;22.55;8.18;;;;;;;2.44;76.38;96658.28;5045573;28;20045;-75
2022/04/11 02:05:05;;;;;;;28.08;8.88;;;;;;;2.42;76.35;96649.69;5045621;28;20048;-76
2022/04/11 02:07:31;;;;;;;24.77;8.40;;;;;;;2.41;76.33;96659.63;5045489;28;20048;-75
2022/04/11 02:09:58;;;;;;;44.08;9.77;;;;;;;2.40;76.52;96657.16;5045366;28;20052;-75
2022/04/11 02:12:24;;;;;;;23.33;8.80;;;;;;;2.39;76.55;96650.19;5045362;28;20041;-76
2022/04/11 02:14:52;;;;;;;21.90;8.98;;;;;;;2.37;76.45;96638.88;5041534;28;20044;-75
2022/04/11 02:17:19;;;;;;;21.02;9.60;;;;;;;2.34;76.46;96643.69;5047215;28;20567;-76
2022/04/11 02:19:45;;;;;;;23.60;9.45;;;;;;;2.33;76.75;96641.28;5049030;28;20048;-75
2022/04/11 02:22:12;;;;;;;20.48;9.48;;;;;;;2.28;77.00;96636.66;5049268;28;20045;-75
2022/04/11 02:24:38;;;;;;;16.50;8.52;;;;;;;2.27;77.15;96635.06;5048994;28;20053;-74
2022/04/11 02:27:05;;;;;;;20.02;9.35;;;;;;;2.25;77.41;96629.13;5049018;28;20060;-75
2022/04/11 02:29:32;;;;;;;17.58;8.95;;;;;;;2.23;77.51;96636.63;5048977;28;20052;-75
2022/04/11 02:31:59;;;;;;;21.13;9.35;;;;;;;2.22;77.38;96624.28;5049006;28;20045;-75
2022/04/11 02:34:26;;;;;;;22.63;9.82;;;;;;;2.22;77.40;96624.28;5048583;28;20049;-75
2022/04/11 02:36:53;;;;;;;21.90;9.85;;;;;;;2.20;77.41;96617.56;5049019;28;20045;-75
2022/04/11 02:39:19;;;;;;;22.60;9.68;;;;;;;2.18;77.45;96617.78;5048535;28;20045;-74
2022/04/11 02:41:46;;;;;;;24.55;10.45;;;;;;;2.18;77.30;96616.97;5048475;28;20045;-75
2022/04/11 02:44:12;;;;;;;24.42;10.30;;;;;;;2.17;77.35;96626.13;5044587;28;20049;-75
2022/04/11 02:46:39;;;;;;;19.52;8.77;;;;;;;2.15;77.41;96612.94;5048032;28;20503;-75
2022/04/11 02:49:07;;;;;;;24.50;10.45;;;;;;;2.15;77.37;96618.31;5048926;28;20056;-75
2022/04/11 02:51:33;;;;;;;19.60;9.40;;;;;;;2.15;77.31;96612.13;5048255;28;20056;-75
2022/04/11 02:54:01;;;;;;;25.92;11.00;;;;;;;2.12;77.33;96608.06;5048681;28;20608;-75
2022/04/11 02:56:28;;;;;;;21.42;9.93;;;;;;;2.11;77.43;96616.41;5048017;28;20057;-74
2022/04/11 02:58:54;;;;;;;26.38;10.75;;;;;;;2.11;77.43;96617.22;5048280;28;20056;-74
2022/04/11 03:01:21;;;;;;;19.75;9.23;;;;;;;2.11;77.43;96614.53;5047933;28;20503;-74
2022/04/11 03:03:47;;;;;;;22.02;9.23;;;;;;;2.12;77.11;96612.66;5047991;28;20059;-77
2022/04/11 03:06:15;;;;;;;19.67;9.40;;;;;;;2.09;76.92;96603.25;5043474;28;20546;-75
2022/04/11 03:08:42;;;;;;;23.33;10.07;;;;;;;2.08;77.05;96606.97;5047790;28;20057;-73
2022/04/11 03:11:08;;;;;;;22.02;9.80;;;;;;;2.07;77.07;96605.34;5047754;28;20052;-74
2022/04/11 03:13:35;;;;;;;19.48;9.05;;;;;;;2.04;77.06;96601.31;5046524;28;20052;-74
2022/04/11 03:16:01;;;;;;;24.48;10.30;;;;;;;2.03;77.21;96593.50;5048488;28;20053;-74
2022/04/11 03:18:28;;;;;;;23.80;10.10;;;;;;;2.02;77.44;96597.25;5047221;28;20048;-75
2022/04/11 03:20:54;;;;;;;24.17;10.07;;;;;;;1.97;77.31;96595.34;5047917;28;20053;-74
2022/04/11 03:23:22;;;;;;;24.02;10.05;;;;;;;1.97;77.37;96598.03;5047483;28;20053;-77
2022/04/11 03:25:48;;;;;;;27.70;10.23;;;;;;;1.98;77.38;96596.16;5047783;28;20053;-76
2022/04/11 03:28:15;;;;;;;29.45;10.05;;;;;;;1.98;77.21;96596.16;5047200;28;20049;-74
2022/04/11 03:30:41;;;;;;;25.27;10.18;;;;;;;1.99;77.30;96592.41;5047154;28;20082;-74
2022/04/11 03:33:08;;;;;;;22.50;9.50;;;;;;;2.04;77.27;96597.81;5047465;28;20055;-74
2022/04/11 03:35:34;;;;;;;26.52;9.98;;;;;;;2.05;77.33;96596.75;5047169;28;20522;-76
2022/04/11 03:38:01;;;;;;;25.40;9.15;;;;;;;2.06;77.54;96593.00;5048123;28;20049;-77
2022/04/11 03:40:29;;;;;;;29.35;9.50;;;;;;;2.06;77.61;96591.13;5046577;28;20731;-74
2022/04/11 03:42:55;;;;;;;28.20;9.73;;;;;;;2.08;77.72;96594.34;5043436;28;20056;-75
2022/04/11 03:45:22;;;;;;;27.00;9.43;;;;;;;2.09;77.69;96587.13;5046892;28;20829;-74
2022/04/11 03:47:49;;;;;;;22.75;9.90;;;;;;;2.09;77.69;96582.56;5047406;28;20083;-75
2022/04/11 03:50:15;;;;;;;23.05;9.93;;;;;;;2.09;77.64;96581.75;5047196;28;20049;-75
2022/04/11 03:52:42;;;;;;;37.75;10.82;;;;;;;2.09;77.59;96576.38;5046906;28;20064;-75
2022/04/11 03:55:09;;;;;;;18.27;8.88;;;;;;;2.09;77.54;96576.38;5047018;28;20522;-75
2022/04/11 03:57:37;;;;;;;30.70;10.07;;;;;;;2.08;77.81;96588.97;5046883;28;20057;-75
2022/04/11 04:00:05;;;;;;;33.88;10.65;;;;;;;2.08;77.74;96582.78;5047105;28;20486;-74
2022/04/11 04:02:31;;;;;;;17.10;9.27;;;;;;;2.08;77.54;96577.41;5042668;28;20463;-74
2022/04/11 04:04:58;;;;;;;35.25;9.27;;;;;;;2.07;77.22;96579.28;5027425;28;20401;-75
2022/04/11 04:07:25;;;;;;;41.97;8.48;;;;;;;2.09;77.04;96587.13;5026628;28;20056;-74
2022/04/11 04:09:52;;;;;;;23.30;9.40;;;;;;;2.07;76.78;96573.91;5027239;28;20073;-74
2022/04/11 04:12:19;;;;;;;38.85;10.10;;;;;;;2.08;76.61;96582.78;5034587;28;20044;-74
2022/04/11 04:14:47;;;;;;;24.90;9.23;;;;;;;2.08;76.63;96588.16;5026879;28;20119;-74
2022/04/11 04:17:14;;;;;;;22.80;9.10;;;;;;;2.05;76.69;96576.06;5027031;28;20053;-75
2022/04/11 04:19:40;;;;;;;23.77;9.10;;;;;;;2.05;76.76;96580.63;5026609;28;20057;-74
2022/04/11 04:22:08;;;;;;;27.98;9.80;;;;;;;2.02;76.91;96581.13;5027189;28;20049;-74
2022/04/11 04:24:36;;;;;;;21.13;9.57;;;;;;;2.00;76.75;96572.53;5026668;28;20045;-74
2022/04/11 04:27:03;;;;;;;22.25;9.25;;;;;;;2.00;76.79;96569.84;5027079;28;20084;-75
2022/04/11 04:29:30;;;;;;;22.90;9.18;;;;;;;2.00;76.72;96567.16;5026682;28;20049;-75
2022/04/11 04:31:58;;;;;;;24.23;10.38;;;;;;;2.01;76.94;96566.09;5026762;28;20060;-75
2022/04/11 04:34:25;;;;;;;19.50;8.68;;;;;;;2.01;77.09;96563.41;5026376;28;20045;-75
2022/04/11 04:36:52;;;;;;;28.63;10.15;;;;;;;2.02;77.35;96556.97;5026734;28;20045;-75
2022/04/11 04:39:19;;;;;;;15.77;7.40;;;;;;;2.02;77.51;96554.28;5025606;28;20899;-75
2022/04/11 04:41:45;;;;;;;23.85;10.10;;;;;;;2.03;77.29;96545.16;5023392;28;20052;-75
2022/04/11 04:44:12;;;;;;;25.23;9.23;;;;;;;2.04;77.42;96541.41;5026850;28;20622;-74
2022/04/11 04:46:39;;;;;;;20.48;8.95;;;;;;;2.04;77.29;96541.41;5026148;28;20049;-74
2022/04/11 04:49:07;;;;;;;19.90;8.82;;;;;;;2.05;77.28;96540.34;5026877;28;20050;-75
2022/04/11 04:51:33;;;;;;;17.15;8.00;;;;;;;2.06;77.16;96541.97;5025881;28;20049;-75
2022/04/11 04:53:59;;;;;;;20.92;9.60;;;;;;;2.06;76.97;96544.66;5026554;28;20045;-75
2022/04/11 04:56:28;;;;;;;20.90;9.18;;;;;;;2.06;76.85;96536.59;5025772;28;20045;-75
2022/04/11 04:58:55;;;;;;;24.88;9.15;;;;;;;2.08;76.88;96535.25;5026280;28;20131;-75
2022/04/11 05:01:21;;;;;;;20.80;9.15;;;;;;;2.08;76.65;96531.75;5026004;28;20059;-75
2022/04/11 05:03:48;;;;;;;22.35;8.52;;;;;;;2.07;76.68;96535.50;5026128;28;20049;-75
2022/04/11 05:06:16;;;;;;;18.17;7.85;;;;;;;2.09;76.56;96541.44;5026563;28;20050;-75
2022/04/11 05:08:42;;;;;;;19.48;8.05;;;;;;;2.10;76.46;96545.75;5026016;28;20057;-75
2022/04/11 05:11:09;;;;;;;17.33;7.53;;;;;;;2.11;76.37;96541.19;5023179;28;20057;-75
2022/04/11 05:13:35;;;;;;;29.92;9.20;;;;;;;2.15;76.28;96532.34;5021215;28;20041;-75
2022/04/11 05:16:02;;;;;;;23.23;8.68;;;;;;;2.17;76.26;96543.63;5026187;28;20057;-75
2022/04/11 05:18:28;;;;;;;18.33;7.75;;;;;;;2.20;76.10;96537.75;5026000;28;20053;-75
2022/04/11 05:20:54;;;;;;;17.38;7.93;;;;;;;2.18;75.97;96539.88;5025886;28;20057;-75
2022/04/11 05:23:22;;;;;;;23.33;8.60;;;;;;;2.20;75.97;96536.94;5025921;28;20056;-76
2022/04/11 05:25:49;;;;;;;17.60;7.90;;;;;;;2.24;75.87;96541.50;5026093;28;20704;-77
2022/04/11 05:28:15;;;;;;;24.42;7.47;;;;;;;2.27;75.83;96541.00;5025918;28;20397;-74
2022/04/11 05:30:41;;;;;;;19.60;8.43;;;;;;;2.30;75.67;96532.44;5024996;28;20475;-75
2022/04/11 05:33:08;;;;;;;16.75;7.72;;;;;;;2.32;75.54;96534.84;5025514;28;20500;-74
2022/04/11 05:35:35;;;;;;;16.55;8.30;;;;;;;2.33;75.49;96529.22;5025572;28;20045;-77
2022/04/11 05:38:01;;;;;;;18.58;8.05;;;;;;;2.39;75.36;96531.94;5026366;28;20092;-76
2022/04/11 05:40:29;;;;;;;25.52;9.55;;;;;;;2.39;75.25;96538.09;5025224;28;20473;-76
2022/04/11 05:42:56;;;;;;;22.23;9.40;;;;;;;2.43;74.95;96538.41;5023033;28;20048;-76
2022/04/11 05:45:22;;;;;;;20.23;8.88;;;;;;;2.39;74.69;96538.09;5025427;28;20057;-76
2022/04/11 05:47:48;;;;;;;17.20;8.50;;;;;;;2.45;74.78;96541.63;5025943;28;20818;-76
2022/04/11 05:50:15;;;;;;;17.25;7.28;;;;;;;2.48;74.63;96535.75;5025361;28;20424;-76
2022/04/11 05:52:41;;;;;;;18.55;7.88;;;;;;;2.52;74.49;96537.66;5029414;28;20502;-76
2022/04/11 05:55:08;;;;;;;16.35;7.65;;;;;;;2.55;74.43;96533.59;5030012;28;20041;-76
2022/04/11 05:57:36;;;;;;;14.80;7.07;;;;;;;2.58;74.45;96531.22;5029618;28;20045;-76
2022/04/11 06:00:03;;;;;;;14.65;7.20;;;;;;;2.66;74.26;96527.19;5029697;28;20049;-76
2022/04/11 06:02:30;;;;;;;19.02;7.38;;;;;;;2.69;74.21;96526.69;5029158;28;20049;-76
2022/04/11 06:04:56;;;;;;;17.15;7.57;;;;;;;2.77;74.05;96536.94;5030057;28;20045;-76
2022/04/11 06:07:25;;;;;;;14.90;6.90;;;;;;;2.83;73.68;96527.81;5028885;28;20050;-76
2022/04/11 06:09:52;;;;;;;26.77;8.77;;;;;;;2.90;73.43;96534.81;5029212;28;20555;-76
2022/04/11 06:12:20;;;;;;;15.98;7.18;;;;;;;2.96;73.61;96536.44;5021488;28;20041;-75
2022/04/11 06:14:48;;;;;;;26.42;7.68;;;;;;;3.04;73.50;96544.03;5029139;28;20069;-75
2022/04/11 06:17:14;;;;;;;15.65;7.18;;;;;;;3.09;73.09;96535.97;5029373;28;20428;-75
2022/04/11 06:19:41;;;;;;;19.98;8.02;;;;;;;3.14;72.91;96533.28;5028853;28;20515;-75
2022/04/11 06:22:10;;;;;;;21.17;8.20;;;;;;;3.22;72.88;96530.06;5029281;28;20509;-76
2022/04/11 06:24:36;;;;;;;23.67;8.45;;;;;;;3.32;72.90;96535.47;5028525;28;20049;-75
2022/04/11 06:27:03;;;;;;;22.77;8.20;;;;;;;3.44;72.80;96531.69;5028930;28;20050;-75
2022/04/11 06:29:29;;;;;;;22.92;8.02;;;;;;;3.55;73.04;96533.31;5027875;28;20041;-75
2022/04/11 06:32:02;;;;;;;20.75;7.68;;;;;;;3.63;72.62;96530.09;5029525;28;20060;-75
2022/04/11 06:34:28;;;;;;;17.75;7.88;;;;;;;3.65;71.63;96533.31;5029221;28;20128;-75
2022/04/11 06:36:55;;;;;;;23.88;8.27;;;;;;;3.70;72.15;96537.91;5029266;28;20046;-75
2022/04/11 06:39:21;;;;;;;24.52;8.40;;;;;;;3.72;72.09;96538.47;5031827;28;25069;-75
2022/04/11 06:41:48;;;;;;;15.60;7.90;;;;;;;3.79;72.03;96542.47;5039900;28;20056;-75
2022/04/11 06:44:14;;;;;;;16.10;7.63;;;;;;;3.86;72.09;96540.34;5049262;28;20048;-75
2022/04/11 06:46:41;;;;;;;20.08;8.52;;;;;;;3.88;71.21;96538.19;5048344;28;20645;-76
2022/04/11 06:49:09;;;;;;;19.00;8.18;;;;;;;3.96;71.50;96544.09;5049097;28;20491;-75
2022/04/11 06:51:35;;;;;;;18.02;7.65;;;;;;;4.05;72.06;96531.69;5048920;28;20048;-74
2022/04/11 06:54:02;;;;;;;20.63;7.53;;;;;;;4.12;71.56;96545.69;5048690;28;20356;-76
2022/04/11 06:56:29;;;;;;;17.30;8.48;;;;;;;4.21;71.13;96541.38;5048849;28;20049;-78
2022/04/11 06:58:55;;;;;;;18.60;8.60;;;;;;;4.27;71.06;96537.56;5048412;28;20420;-77
2022/04/11 07:01:22;;;;;;;30.52;8.07;;;;;;;4.38;71.16;96533.78;5048277;28;20048;-75
2022/04/11 07:03:48;;;;;;;16.48;7.65;;;;;;;4.48;70.93;96529.44;5047698;28;20056;-75
2022/04/11 07:06:16;;;;;;;17.52;7.20;;;;;;;4.62;70.64;96530.47;5048619;28;20040;-75
2022/04/11 07:08:43;;;;;;;17.15;7.57;;;;;;;4.74;70.31;96533.66;5047775;28;20515;-75
2022/04/11 07:11:09;;;;;;;15.95;8.27;;;;;;;4.85;70.37;96534.41;5048115;28;20059;-75
2022/04/11 07:13:36;;;;;;;20.38;7.93;;;;;;;4.97;69.38;96543.81;5043259;28;20056;-75
2022/04/11 07:16:03;;;;;;;16.42;7.47;;;;;;;5.12;68.53;96539.44;5048303;28;20049;-75
2022/04/11 07:18:31;;;;;;;15.73;7.13;;;;;;;5.25;67.80;96538.81;5048363;28;20048;-75
2022/04/11 07:20:57;;;;;;;20.85;8.05;;;;;;;5.41;67.05;96537.63;5048112;28;20049;-75
2022/04/11 07:23:25;;;;;;;17.77;6.60;;;;;;;5.55;66.39;96545.91;5048194;28;20044;-75
2022/04/11 07:25:52;;;;;;;14.20;7.22;;;;;;;5.67;65.74;96548.25;5048036;28;20057;-75
2022/04/11 07:28:18;;;;;;;13.18;6.78;;;;;;;6.07;64.99;96544.44;5048072;28;20049;-75
2022/04/11 07:30:45;;;;;;;19.92;6.20;;;;;;;7.00;63.34;96540.47;5046756;28;20045;-74
2022/04/11 07:33:12;;;;;;;13.95;6.63;;;;;;;7.93;59.93;96546.13;5047962;28;20059;-77
2022/04/11 07:35:38;;;;;;;19.67;6.22;;;;;;;8.51;56.79;96544.91;5047063;28;20052;-76
2022/04/11 07:38:05;;;;;;;15.82;6.85;;;;;;;9.01;54.24;96548.53;5047992;28;20045;-77
2022/04/11 07:40:32;;;;;;;11.35;5.60;;;;;;;9.57;53.44;96550.06;5047158;28;20060;-78
2022/04/11 07:42:59;;;;;;;13.85;6.40;;;;;;;10.21;52.26;96547.19;5042844;28;20084;-76
2022/04/11 07:45:26;;;;;;;12.30;6.20;;;;;;;10.78;49.48;96541.91;5046925;28;20047;-74
2022/04/11 07:47:52;;;;;;;21.08;6.57;;;;;;;11.18;46.61;96542.69;5047177;28;20049;-74
2022/04/11 07:50:19;;;;;;;12.68;5.43;;;;;;;11.58;44.78;96545.31;5047244;28;20052;-75
2022/04/11 07:52:45;;;;;;;15.88;6.40;;;;;;;12.05;44.71;96531.84;5047156;28;20079;-74
2022/04/11 07:55:15;;;;;;;14.35;5.68;;;;;;;12.45;43.11;96537.88;5047289;28;20745;-74
2022/04/11 07:57:43;;;;;;;19.20;6.65;;;;;;;12.78;41.96;96538.09;5046606;28;20148;-75
2022/04/11 08:00:11;;;;;;;16.73;6.50;;;;;;;13.38;41.55;96532.69;5047235;28;20407;-73
2022/04/11 08:02:38;;;;;;;15.82;5.82;;;;;;;13.67;40.42;96540.84;5047388;28;20053;-73
2022/04/11 08:05:06;;;;;;;16.30;6.55;;;;;;;14.26;40.71;96535.22;5047261;28;20115;-74
2022/04/11 08:07:33;;;;;;;11.15;5.28;;;;;;;14.86;37.49;96533.78;5047195;28;20051;-73
2022/04/11 08:10:00;;;;;;;10.02;5.15;;;;;;;15.46;36.90;96536.06;5046634;28;20063;-73
2022/04/11 08:12:26;;;;;;;10.25;5.40;;;;;;;15.85;37.54;96532.59;5043336;28;20047;-75
2022/04/11 08:14:54;;;;;;;11.73;4.78;;;;;;;16.10;35.68;96538.00;5045640;28;20052;-73
2022/04/11 08:17:21;;;;;;;8.55;4.32;;;;;;;16.16;34.95;96536.59;5046944;28;20115;-74
2022/04/11 08:19:48;;;;;;;7.70;4.78;;;;;;;16.42;35.20;96536.94;5046403;28;20088;-72
2022/04/11 08:22:14;;;;;;;15.43;6.00;;;;;;;16.47;35.10;96540.59;5046637;28;20415;-74
2022/04/11 08:24:41;;;;;;;16.05;5.47;;;;;;;17.07;33.99;96541.38;5041028;28;20061;-73
2022/04/11 08:27:07;;;;;;;12.88;5.45;;;;;;;17.43;33.65;96543.84;5026591;28;20054;-74
2022/04/11 08:29:34;;;;;;;11.82;4.78;;;;;;;17.48;33.69;96546.31;5026363;28;20404;-73
2022/04/11 08:32:02;;;;;;;14.52;5.03;;;;;;;17.74;32.09;96536.69;5026039;28;20048;-73
2022/04/11 08:34:28;;;;;;;10.27;4.63;;;;;;;17.70;31.96;96546.81;5026551;28;20049;-74
2022/04/11 08:36:55;;;;;;;12.07;5.18;;;;;;;18.08;31.77;96528.78;5026154;28;20049;-73
2022/04/11 08:39:21;;;;;;;12.68;5.03;;;;;;;18.21;31.40;96527.44;5026606;28;20068;-73
2022/04/11 08:41:48;;;;;;;14.73;5.55;;;;;;;18.07;31.01;96539.00;5031492;28;20049;-74
2022/04/11 08:44:14;;;;;;;13.57;5.35;;;;;;;18.05;31.35;96535.00;5028561;28;20049;-74
2022/04/11 08:46:41;;;;;;;11.88;4.68;;;;;;;18.27;30.62;96537.03;5025675;28;20077;-74
2022/04/11 08:49:09;;;;;;;13.38;5.10;;;;;;;17.88;30.54;96531.50;5044092;28;20055;-73
2022/04/11 08:51:36;;;;;;;12.02;4.85;;;;;;;17.62;30.77;96534.03;5045762;28;20041;-73
2022/04/11 08:54:05;;;;;;;11.88;4.28;;;;;;;17.61;29.92;96529.69;5046110;28;20053;-73
2022/04/11 08:56:32;;;;;;;12.02;4.57;;;;;;;17.71;31.36;96520.88;5046013;28;20472;-74
2022/04/11 08:58:59;;;;;;;14.07;4.10;;;;;;;17.69;30.17;96523.97;5045561;28;20698;-73
2022/04/11 09:01:26;;;;;;;14.93;4.80;;;;;;;17.61;30.68;96521.44;5045634;28;20040;-73
2022/04/11 09:03:52;;;;;;;14.02;5.50;;;;;;;17.54;32.23;96519.34;5045971;28;20419;-72
2022/04/11 09:06:23;;;;;;;13.48;5.28;;;;;;;17.39;32.30;96515.44;5046121;28;20072;-74
2022/04/11 09:08:51;;;;;;;14.85;5.00;;;;;;;17.43;31.75;96515.50;5046069;28;20080;-73
2022/04/11 09:11:30;;;;;;;15.68;5.45;;;;;;;17.16;32.21;96509.78;5045201;28;20057;-73
2022/04/11 09:13:57;;;;;;;16.77;5.75;;;;;;;17.08;32.92;96508.03;5030248;28;20585;-73
2022/04/11 09:16:24;;;;;;;18.95;5.85;;;;;;;16.68;32.45;96503.47;5025581;28;20411;-75
2022/04/11 09:18:53;;;;;;;16.10;5.40;;;;;;;16.25;35.64;96504.28;5026068;28;20045;-74
2022/04/11 09:21:22;;;;;;;16.02;5.90;;;;;;;16.25;36.74;96500.75;5024683;28;20052;-76
2022/04/11 09:23:50;;;;;;;12.85;4.90;;;;;;;16.34;35.27;96502.19;5026490;28;20101;-74
2022/04/11 09:26:21;;;;;;;19.85;5.65;;;;;;;16.47;35.65;96502.09;5026614;28;20056;-74
2022/04/11 09:29:01;;;;;;;17.45;5.60;;;;;;;16.30;34.07;96505.97;5030588;28;20056;-74
2022/04/11 09:31:28;;;;;;;12.95;4.80;;;;;;;16.39;35.45;96507.44;5028981;28;20403;-74
2022/04/11 09:33:55;;;;;;;18.10;6.18;;;;;;;16.40;34.84;96498.03;5030043;28;20049;-73
2022/04/11 09:36:24;;;;;;;13.80;5.00;;;;;;;16.51;35.92;96503.00;5029822;28;25069;-72
2022/04/11 09:39:01;;;;;;;14.43;5.40;;;;;;;16.52;35.25;96501.84;5029622;28;20136;-72
2022/04/11 09:41:29;;;;;;;14.00;5.00;;;;;;;16.37;36.64;96493.22;5034974;28;20733;-72
2022/04/11 09:43:56;;;;;;;18.77;5.78;;;;;;;16.40;36.26;96509.03;5029716;28;20869;-74
2022/04/11 09:46:23;;;;;;;15.90;5.03;;;;;;;16.33;37.60;96492.31;5029792;28;20569;-75
2022/04/11 09:48:54;;;;;;;14.02;5.22;;;;;;;16.31;34.82;96502.88;5029315;28;20542;-73
2022/04/11 09:51:20;;;;;;;17.20;6.05;;;;;;;16.30;34.92;96504.03;5029117;28;20056;-73
2022/04/11 09:53:48;;;;;;;12.30;4.95;;;;;;;16.38;36.72;96494.81;5029131;28;20811;-74
2022/04/11 09:56:17;;;;;;;16.65;5.70;;;;;;;16.36;36.02;96502.63;5029225;28;20061;-74
2022/04/11 09:58:43;;;;;;;16.73;5.28;;;;;;;16.34;37.12;96499.44;5029512;28;20057;-77
2022/04/11 10:01:10;;;;;;;20.25;6.85;;;;;;;16.52;35.45;96496.34;5028119;28;20053;-75
2022/04/11 10:03:38;;;;;;;15.80;5.35;;;;;;;16.48;35.13;96498.22;5029659;28;20053;-74
2022/04/11 10:06:05;;;;;;;19.05;6.25;;;;;;;16.33;35.83;96486.81;5028946;28;20514;-73
2022/04/11 10:08:33;;;;;;;16.42;5.38;;;;;;;16.35;35.59;96489.25;5029986;28;20049;-73
2022/04/11 10:11:01;;;;;;;22.92;6.95;;;;;;;16.05;36.78;96491.56;5029747;28;20147;-75
2022/04/11 10:13:29;;;;;;;18.02;5.47;;;;;;;15.89;35.60;96484.06;5048813;28;20099;-75
2022/04/11 10:15:55;;;;;;;12.25;5.10;;;;;;;15.75;38.46;96480.91;5048879;28;20045;-75
2022/04/11 10:18:26;;;;;;;18.38;6.53;;;;;;;15.79;37.72;96484.56;5048690;28;20055;-73
2022/04/11 10:20:57;;;;;;;13.43;5.53;;;;;;;15.85;38.11;96469.44;5049107;28;20141;-73
2022/04/11 10:23:31;;;;;;;15.77;5.90;;;;;;;15.94;36.84;96468.50;5048241;28;20045;-73
2022/04/11 10:26:03;;;;;;;12.85;5.07;;;;;;;16.01;37.69;96468.69;5049653;28;20083;-73
2022/04/11 10:28:30;;;;;;;17.63;6.03;;;;;;;16.11;35.93;96470.91;5048408;28;20728;-73
2022/04/11 10:31:06;;;;;;;15.60;5.65;;;;;;;16.04;36.87;96466.03;5049312;28;20056;-72
2022/04/11 10:33:43;;;;;;;17.35;5.93;;;;;;;15.98;36.60;96458.41;5048148;28;20048;-74
2022/04/11 10:36:32;;;;;;;16.15;5.50;;;;;;;16.04;36.63;96454.25;5048834;28;20048;-72
2022/04/11 10:39:25;;;;;;;13.63;4.82;;;;;;;16.11;38.88;96454.44;5047729;28;20053;-74
2022/04/11 10:42:10;;;;;;;17.77;6.10;;;;;;;15.98;34.64;96455.66;5044504;28;20041;-76
2022/04/11 10:44:37;;;;;;;13.55;5.40;;;;;;;15.89;37.68;96450.31;5049107;28;20056;-72
2022/04/11 10:47:33;;;;;;;13.73;5.22;;;;;;;16.00;34.78;96456.91;5048046;28;20056;-73
2022/04/11 10:50:19;;;;;;;16.83;5.90;;;;;;;15.85;34.37;96447.47;5031887;28;20046;-73
2022/04/11 10:52:46;;;;;;;12.52;5.07;;;;;;;15.88;37.34;96452.25;5028840;28;20049;-72
2022/04/11 10:55:15;;;;;;;17.70;6.07;;;;;;;15.92;34.76;96449.59;5027665;28;20718;-73
2022/04/11 10:57:45;;;;;;;12.57;4.75;;;;;;;15.95;33.54;96451.66;5029048;28;20050;-72
2022/04/11 11:00:13;;;;;;;15.65;5.05;;;;;;;16.11;34.95;96452.50;5027165;28;20428;-74
2022/04/11 11:03:13;;;;;;;15.85;5.53;;;;;;;16.26;35.11;96450.13;5028314;28;20077;-74
2022/04/11 11:05:41;;;;;;;15.95;5.45;;;;;;;16.28;33.06;96440.38;5028071;28;20056;-74
2022/04/11 11:08:33;;;;;;;16.80;5.72;;;;;;;16.06;35.18;96440.97;5027711;28;20065;-76
2022/04/11 11:11:02;;;;;;;16.90;5.57;;;;;;;15.97;34.40;96435.63;5029534;28;20065;-73
2022/04/11 11:13:39;;;;;;;15.52;5.55;;;;;;;15.90;35.66;96425.25;5027237;28;20088;-74
2022/04/11 11:16:28;;;;;;;16.13;5.45;;;;;;;15.77;34.41;96414.69;5027749;28;20064;-75
2022/04/11 11:19:17;;;;;;;11.10;4.57;;;;;;;15.86;34.95;96413.34;5027934;28;20057;-75
2022/04/11 11:22:01;;;;;;;16.20;5.20;;;;;;;16.05;34.29;96414.66;5026927;28;20060;-74
2022/04/11 11:24:28;;;;;;;16.55;5.40;;;;;;;15.92;34.35;96411.16;5027912;28;20045;-75
2022/04/11 11:26:57;;;;;;;17.15;5.13;;;;;;;15.97;35.80;96401.84;5027285;28;20050;-74
2022/04/11 11:29:27;;;;;;;18.65;5.65;;;;;;;16.09;34.41;96401.81;5027569;28;20104;-75
2022/04/11 11:31:56;;;;;;;13.57;5.05;;;;;;;16.19;35.33;96404.03;5027425;28;20053;-74
2022/04/11 11:34:25;;;;;;;15.85;5.03;;;;;;;16.20;32.94;96400.13;5027338;28;20807;-75